Time;durP1;ratioP1;P1;durP2;ratioP2;P2;SDS_P1;SDS_P2;PMS_P1;PMS_P2;Temp;Humidity;BMP_temperature;BMP_pressure;BME280_temperature;BME280_humidity;BME280_pressure;Samples;Min_cycle;Max_cycle;Signal;HPM_P1;HPM_P2
2023/08/18 00:00:08;;;;;;;6.25;4.95;;;;;;;;;;611312;23;1453;-75
2023/08/18 00:00:28;;;;;;;7.30;5.00;;;;;;;;;;616299;23;1017;-73
2023/08/18 00:00:48;;;;;;;6.22;4.90;;;;;;;;;;617285;23;1504;-74
2023/08/18 00:01:09;;;;;;;6.32;4.95;;;;;;;;;;617558;23;1561;-75
2023/08/18 00:02:15;;;;;;;7.13;5.13;;;;;;;;;;619418;23;1410;-74
2023/08/18 00:02:56;;;;;;;7.50;5.20;;;;;;;;;;621219;23;1323;-74
2023/08/18 00:03:15;;;;;;;6.65;5.00;;;;;;;;;;617732;23;1307;-74
2023/08/18 00:03:40;;;;;;;7.57;4.97;;;;;;;;;;618372;23;1475;-74
2023/08/18 00:03:59;;;;;;;8.90;5.05;;;;;;;;;;617627;23;1296;-74
2023/08/18 00:04:29;;;;;;;7.03;5.20;;;;;;;;;;618233;23;1583;-74
2023/08/18 00:04:57;;;;;;;7.18;5.07;;;;;;;;;;617872;23;1173;-74
2023/08/18 00:05:13;;;;;;;7.85;5.10;;;;;;;;;;615799;23;1467;-74
2023/08/18 00:05:29;;;;;;;6.53;5.10;;;;;;;;;;615740;23;1149;-73
2023/08/18 00:05:45;;;;;;;7.23;5.10;;;;;;;;;;615254;23;1384;-74
2023/08/18 00:06:07;;;;;;;6.78;5.20;;;;;;;;;;615214;23;1382;-75
2023/08/18 00:06:22;;;;;;;6.82;5.25;;;;;;;;;;618113;23;1437;-74
2023/08/18 00:06:38;;;;;;;6.85;5.00;;;;;;;;;;617567;23;1255;-73
2023/08/18 00:07:00;;;;;;;6.80;4.90;;;;;;;;;;614973;23;1145;-74
2023/08/18 00:07:16;;;;;;;5.80;4.80;;;;;;;;;;615035;23;1281;-73
2023/08/18 00:07:32;;;;;;;5.80;5.00;;;;;;;;;;618470;23;1276;-73
2023/08/18 00:07:51;;;;;;;5.80;4.87;;;;;;;;;;618775;23;1278;-73
2023/08/18 00:08:07;;;;;;;5.40;4.80;;;;;;;;;;617782;23;1280;-73
2023/08/18 00:08:23;;;;;;;6.18;5.05;;;;;;;;;;617685;23;1127;-73
2023/08/18 00:08:42;;;;;;;6.68;4.80;;;;;;;;;;615047;23;1340;-74
2023/08/18 00:09:10;;;;;;;7.15;4.88;;;;;;;;;;612114;23;1472;-74
2023/08/18 00:09:36;;;;;;;5.57;4.75;;;;;;;;;;612387;23;1184;-73
2023/08/18 00:09:55;;;;;;;6.53;5.07;;;;;;;;;;609297;24;1412;-74
2023/08/18 00:10:14;;;;;;;6.60;5.18;;;;;;;;;;610093;23;1335;-74
2023/08/18 00:10:29;;;;;;;8.13;5.18;;;;;;;;;;610801;23;992;-74
2023/08/18 00:10:46;;;;;;;8.10;5.13;;;;;;;;;;621883;23;963;-74
2023/08/18 00:11:01;;;;;;;8.20;5.22;;;;;;;;;;624789;23;800;-74
2023/08/18 00:11:16;;;;;;;7.10;5.30;;;;;;;;;;625746;23;1289;-74
2023/08/18 00:11:32;;;;;;;5.82;5.10;;;;;;;;;;624581;23;1295;-74
2023/08/18 00:11:47;;;;;;;5.80;5.00;;;;;;;;;;623085;23;1134;-74
2023/08/18 00:12:04;;;;;;;5.70;5.07;;;;;;;;;;628922;23;1189;-74
2023/08/18 00:12:20;;;;;;;6.32;5.10;;;;;;;;;;627594;23;1285;-75
2023/08/18 00:12:35;;;;;;;5.97;5.03;;;;;;;;;;626973;23;1311;-74
2023/08/18 00:12:50;;;;;;;5.50;5.00;;;;;;;;;;627323;23;931;-74
2023/08/18 00:13:06;;;;;;;6.88;5.10;;;;;;;;;;623490;23;1208;-74
2023/08/18 00:13:21;;;;;;;7.20;5.10;;;;;;;;;;624146;23;1257;-74
2023/08/18 00:13:36;;;;;;;6.17;5.00;;;;;;;;;;621998;23;1476;-74
2023/08/18 00:13:52;;;;;;;6.30;4.90;;;;;;;;;;621486;23;1170;-75
2023/08/18 00:14:07;;;;;;;8.30;4.72;;;;;;;;;;618498;23;1181;-74
2023/08/18 00:14:22;;;;;;;8.03;4.63;;;;;;;;;;621309;23;1193;-74
2023/08/18 00:14:38;;;;;;;6.23;4.90;;;;;;;;;;621410;23;1261;-74
2023/08/18 00:14:55;;;;;;;7.40;5.07;;;;;;;;;;616070;23;1435;-75
2023/08/18 00:15:16;;;;;;;7.25;5.20;;;;;;;;;;616098;23;1738;-74
2023/08/18 00:15:38;;;;;;;5.53;4.82;;;;;;;;;;618829;23;1586;-75
2023/08/18 00:15:57;;;;;;;5.20;4.70;;;;;;;;;;618116;23;1385;-74
2023/08/18 00:16:16;;;;;;;4.95;4.45;;;;;;;;;;615353;23;1210;-75
2023/08/18 00:16:37;;;;;;;6.20;4.80;;;;;;;;;;616847;23;851;-74
2023/08/18 00:16:56;;;;;;;6.30;4.90;;;;;;;;;;617964;23;1172;-74
2023/08/18 00:17:18;;;;;;;5.53;4.90;;;;;;;;;;612722;23;1432;-74
2023/08/18 00:17:37;;;;;;;6.40;4.72;;;;;;;;;;615224;23;1387;-74
2023/08/18 00:17:53;;;;;;;6.00;4.68;;;;;;;;;;615447;23;1483;-75
2023/08/18 00:18:12;;;;;;;5.95;4.60;;;;;;;;;;614657;23;1394;-74
2023/08/18 00:18:33;;;;;;;5.60;4.22;;;;;;;;;;612032;23;1364;-74
2023/08/18 00:18:49;;;;;;;4.43;3.92;;;;;;;;;;613910;23;864;-74
2023/08/18 00:19:04;;;;;;;4.40;4.00;;;;;;;;;;614707;23;1352;-74
2023/08/18 00:19:21;;;;;;;4.73;4.33;;;;;;;;;;614920;23;1233;-74
2023/08/18 00:20:01;;;;;;;4.93;4.30;;;;;;;;;;614820;23;1472;-74
2023/08/18 00:20:19;;;;;;;5.50;4.25;;;;;;;;;;617541;23;1101;-74
2023/08/18 00:20:38;;;;;;;5.75;4.50;;;;;;;;;;615015;23;1340;-73
2023/08/18 00:20:57;;;;;;;5.80;4.30;;;;;;;;;;615816;23;1542;-74
2023/08/18 00:21:16;;;;;;;6.45;4.30;;;;;;;;;;617830;23;1299;-74
2023/08/18 00:21:40;;;;;;;7.07;4.50;;;;;;;;;;619711;23;1339;-74
2023/08/18 00:21:58;;;;;;;6.60;4.55;;;;;;;;;;617677;23;1376;-74
2023/08/18 00:22:14;;;;;;;5.78;4.40;;;;;;;;;;618499;23;1285;-74
2023/08/18 00:22:30;;;;;;;6.28;4.45;;;;;;;;;;618231;23;1313;-74
2023/08/18 00:22:46;;;;;;;6.30;4.40;;;;;;;;;;615087;23;1560;-74
2023/08/18 00:23:08;;;;;;;5.28;4.40;;;;;;;;;;618159;23;1249;-75
2023/08/18 00:24:06;;;;;;;8.00;4.70;;;;;;;;;;611280;23;767;-75
2023/08/18 00:24:06;;;;;;;6.70;4.45;;;;;;;;;;618624;23;1443;-75
2023/08/18 00:24:31;;;;;;;7.10;4.68;;;;;;;;;;615394;23;1348;-74
2023/08/18 00:24:51;;;;;;;7.28;4.75;;;;;;;;;;617966;23;1120;-74
2023/08/18 00:25:10;;;;;;;5.82;4.65;;;;;;;;;;618318;23;1958;-75
2023/08/18 00:25:35;;;;;;;6.95;4.57;;;;;;;;;;615004;23;1422;-74
2023/08/18 00:25:54;;;;;;;7.45;4.80;;;;;;;;;;614811;23;1379;-74
2023/08/18 00:26:10;;;;;;;7.07;4.88;;;;;;;;;;615311;23;1523;-74
2023/08/18 00:26:26;;;;;;;7.63;4.88;;;;;;;;;;617541;23;1472;-74
2023/08/18 00:26:48;;;;;;;7.07;4.78;;;;;;;;;;618122;23;1280;-74
2023/08/18 00:27:07;;;;;;;6.65;4.72;;;;;;;;;;620997;23;1477;-75
2023/08/18 00:27:34;;;;;;;6.75;4.75;;;;;;;;;;614804;23;1371;-74
2023/08/18 00:27:56;;;;;;;6.85;4.90;;;;;;;;;;621138;23;1451;-74
2023/08/18 00:28:15;;;;;;;5.95;4.80;;;;;;;;;;618298;23;1586;-74
2023/08/18 00:28:30;;;;;;;9.68;5.03;;;;;;;;;;618556;23;863;-74
2023/08/18 00:28:49;;;;;;;9.88;5.00;;;;;;;;;;614753;23;1293;-74
2023/08/18 00:29:06;;;;;;;7.70;4.97;;;;;;;;;;612103;23;1613;-75
2023/08/18 00:29:21;;;;;;;6.40;5.20;;;;;;;;;;614474;23;840;-74
2023/08/18 00:29:40;;;;;;;7.75;5.15;;;;;;;;;;611844;23;1278;-74
2023/08/18 00:29:56;;;;;;;8.85;5.22;;;;;;;;;;615270;23;843;-74
2023/08/18 00:30:12;;;;;;;8.13;4.95;;;;;;;;;;620796;23;1328;-74
2023/08/18 00:30:28;;;;;;;6.50;5.00;;;;;;;;;;617971;23;1225;-74
2023/08/18 00:30:44;;;;;;;7.18;5.10;;;;;;;;;;617142;23;1507;-75
2023/08/18 00:30:59;;;;;;;7.53;5.00;;;;;;;;;;619698;23;836;-75
2023/08/18 00:31:15;;;;;;;6.75;5.20;;;;;;;;;;620946;23;1320;-74
2023/08/18 00:31:31;;;;;;;6.18;5.13;;;;;;;;;;621352;23;1324;-74
2023/08/18 00:31:50;;;;;;;6.93;5.10;;;;;;;;;;617701;23;1216;-74
2023/08/18 00:32:09;;;;;;;8.63;5.25;;;;;;;;;;618117;23;1502;-75
2023/08/18 00:32:25;;;;;;;6.80;5.30;;;;;;;;;;618178;23;1323;-74
2023/08/18 00:32:41;;;;;;;6.45;5.05;;;;;;;;;;618442;23;1538;-74
2023/08/18 00:33:05;;;;;;;9.18;5.20;;;;;;;;;;617960;23;815;-74
2023/08/18 00:33:24;;;;;;;7.70;5.38;;;;;;;;;;615003;23;1136;-73
2023/08/18 00:33:52;;;;;;;6.40;5.18;;;;;;;;;;616119;23;1201;-74
2023/08/18 00:34:11;;;;;;;8.65;5.13;;;;;;;;;;617667;23;1298;-74
2023/08/18 00:34:30;;;;;;;7.25;5.25;;;;;;;;;;614559;23;1348;-74
2023/08/18 00:35:05;;;;;;;;;;;;;;;;;;;;;
2023/08/18 00:35:30;;;;;;;8.30;5.20;;;;;;;;;;617809;23;696;-75
2023/08/18 00:35:46;;;;;;;6.68;5.00;;;;;;;;;;614438;23;1523;-74
2023/08/18 00:36:06;;;;;;;6.50;5.18;;;;;;;;;;614435;23;1459;-74
2023/08/18 00:36:33;;;;;;;7.20;5.40;;;;;;;;;;616755;23;1228;-74
2023/08/18 00:36:57;;;;;;;5.97;5.30;;;;;;;;;;615090;23;1375;-74
2023/08/18 00:37:16;;;;;;;6.57;5.40;;;;;;;;;;614721;23;1425;-75
2023/08/18 00:37:33;;;;;;;6.47;5.47;;;;;;;;;;614743;23;1454;-74
2023/08/18 00:37:51;;;;;;;6.85;5.50;;;;;;;;;;617257;23;852;-74
2023/08/18 00:38:07;;;;;;;7.25;5.40;;;;;;;;;;618111;23;1217;-74
2023/08/18 00:38:23;;;;;;;6.35;5.32;;;;;;;;;;614980;23;1443;-74
2023/08/18 00:38:45;;;;;;;5.97;5.35;;;;;;;;;;616088;23;1244;-74
2023/08/18 00:39:21;;;;;;;6.47;5.47;;;;;;;;;;615383;23;1562;-74
2023/08/18 00:39:42;;;;;;;8.95;5.40;;;;;;;;;;611602;23;1084;-74
2023/08/18 00:39:58;;;;;;;8.43;5.50;;;;;;;;;;609891;23;904;-74
2023/08/18 00:40:16;;;;;;;6.68;5.57;;;;;;;;;;610264;23;1413;-74
2023/08/18 00:40:35;;;;;;;8.73;5.65;;;;;;;;;;616399;23;1473;-75
2023/08/18 00:40:51;;;;;;;7.45;5.57;;;;;;;;;;615485;23;1236;-75
2023/08/18 00:41:10;;;;;;;6.70;5.47;;;;;;;;;;618035;23;856;-75
2023/08/18 00:41:26;;;;;;;7.47;5.50;;;;;;;;;;615573;23;1488;-75
2023/08/18 00:41:42;;;;;;;8.47;5.37;;;;;;;;;;615268;23;1126;-74
2023/08/18 00:42:00;;;;;;;9.13;5.70;;;;;;;;;;615389;23;1225;-74
2023/08/18 00:42:16;;;;;;;7.57;5.57;;;;;;;;;;614632;23;1443;-74
2023/08/18 00:42:35;;;;;;;6.97;5.37;;;;;;;;;;617798;23;846;-74
2023/08/18 00:42:51;;;;;;;6.53;5.70;;;;;;;;;;617326;23;1333;-75
2023/08/18 00:43:07;;;;;;;6.53;5.40;;;;;;;;;;614581;23;1529;-75
2023/08/18 00:43:22;;;;;;;6.03;5.23;;;;;;;;;;612230;23;1132;-75
2023/08/18 00:43:42;;;;;;;6.43;5.32;;;;;;;;;;615189;23;1233;-75
2023/08/18 00:43:58;;;;;;;8.13;5.40;;;;;;;;;;614850;23;1295;-74
2023/08/18 00:44:14;;;;;;;8.30;5.47;;;;;;;;;;618054;23;1198;-74
2023/08/18 00:44:30;;;;;;;6.93;5.50;;;;;;;;;;614581;23;1222;-74
2023/08/18 00:44:52;;;;;;;8.52;5.60;;;;;;;;;;617615;23;1249;-75
2023/08/18 00:45:08;;;;;;;8.55;5.65;;;;;;;;;;623107;23;1959;-74
2023/08/18 00:45:24;;;;;;;7.70;5.50;;;;;;;;;;623932;23;1213;-74
2023/08/18 00:45:40;;;;;;;8.53;5.50;;;;;;;;;;620621;23;1327;-74
2023/08/18 00:45:56;;;;;;;8.35;5.47;;;;;;;;;;618666;23;788;-74
2023/08/18 00:46:24;;;;;;;6.35;5.30;;;;;;;;;;621023;23;1448;-75
2023/08/18 00:46:43;;;;;;;7.90;5.50;;;;;;;;;;621221;23;1114;-74
2023/08/18 00:47:03;;;;;;;6.47;5.65;;;;;;;;;;621263;23;907;-74
2023/08/18 00:47:18;;;;;;;6.30;5.43;;;;;;;;;;617600;23;1387;-74
2023/08/18 00:47:38;;;;;;;8.10;5.50;;;;;;;;;;616231;23;1467;-75
2023/08/18 00:48:00;;;;;;;7.93;5.75;;;;;;;;;;614591;23;1179;-75
2023/08/18 00:48:20;;;;;;;7.40;5.53;;;;;;;;;;614595;23;1441;-74
2023/08/18 00:48:49;;;;;;;6.20;5.50;;;;;;;;;;614970;23;1427;-75
2023/08/18 00:49:18;;;;;;;6.72;5.50;;;;;;;;;;615123;23;1365;-76
2023/08/18 00:49:40;;;;;;;8.27;5.40;;;;;;;;;;617501;23;1473;-75
2023/08/18 00:50:03;;;;;;;8.32;5.50;;;;;;;;;;617730;23;1487;-74
2023/08/18 00:50:19;;;;;;;8.55;5.50;;;;;;;;;;620274;23;1538;-75
2023/08/18 00:50:38;;;;;;;8.40;5.72;;;;;;;;;;620301;23;1408;-74
2023/08/18 00:51:08;;;;;;;;;;;;;;;;;;;;;
2023/08/18 00:51:49;;;;;;;7.57;5.35;;;;;;;;;;615813;23;1215;-74
2023/08/18 00:52:08;;;;;;;9.15;5.82;;;;;;;;;;617694;23;1026;-75
2023/08/18 00:52:25;;;;;;;10.00;5.60;;;;;;;;;;618071;23;1451;-74
2023/08/18 00:52:42;;;;;;;7.72;5.50;;;;;;;;;;617714;23;1315;-74
2023/08/18 00:52:59;;;;;;;6.82;5.55;;;;;;;;;;620543;23;820;-74
2023/08/18 00:53:16;;;;;;;7.88;5.88;;;;;;;;;;617764;23;1255;-75
2023/08/18 00:53:48;;;;;;;7.43;5.82;;;;;;;;;;618322;23;1450;-74
2023/08/18 00:54:04;;;;;;;8.95;5.90;;;;;;;;;;614944;23;1308;-75
2023/08/18 00:54:20;;;;;;;8.32;5.90;;;;;;;;;;617263;23;1469;-75
2023/08/18 00:54:39;;;;;;;6.65;5.72;;;;;;;;;;620606;23;800;-74
2023/08/18 00:54:55;;;;;;;6.75;5.57;;;;;;;;;;617639;23;1493;-74
2023/08/18 00:55:15;;;;;;;6.25;5.50;;;;;;;;;;617760;23;1100;-74
2023/08/18 00:55:31;;;;;;;5.82;5.25;;;;;;;;;;617137;23;1313;-74
2023/08/18 00:55:50;;;;;;;7.50;5.45;;;;;;;;;;614452;23;1478;-75
2023/08/18 00:56:09;;;;;;;8.50;5.85;;;;;;;;;;611793;23;1415;-74
2023/08/18 00:56:28;;;;;;;8.57;5.85;;;;;;;;;;612358;23;1420;-74
2023/08/18 00:56:50;;;;;;;7.75;5.90;;;;;;;;;;609767;23;1397;-74
2023/08/18 00:57:06;;;;;;;7.53;5.90;;;;;;;;;;609373;23;1363;-74
2023/08/18 00:57:26;;;;;;;8.25;5.75;;;;;;;;;;611868;23;1431;-75
2023/08/18 00:57:43;;;;;;;8.00;5.90;;;;;;;;;;611995;23;1336;-73
2023/08/18 00:58:01;;;;;;;6.88;5.75;;;;;;;;;;611626;23;1139;-74
2023/08/18 00:58:20;;;;;;;6.53;5.30;;;;;;;;;;611643;23;1354;-74
2023/08/18 00:58:42;;;;;;;6.60;5.47;;;;;;;;;;613487;23;1113;-74
2023/08/18 00:59:09;;;;;;;8.10;5.85;;;;;;;;;;613262;23;1582;-74
2023/08/18 00:59:29;;;;;;;6.63;5.82;;;;;;;;;;612235;23;1380;-74
2023/08/18 00:59:46;;;;;;;7.30;5.72;;;;;;;;;;614811;23;1211;-75
2023/08/18 01:00:05;;;;;;;7.55;5.63;;;;;;;;;;614997;23;1226;-74
2023/08/18 01:00:23;;;;;;;8.93;5.85;;;;;;;;;;614978;23;1462;-74
2023/08/18 01:00:45;;;;;;;8.27;5.85;;;;;;;;;;611506;23;1348;-74
2023/08/18 01:01:02;;;;;;;9.25;5.90;;;;;;;;;;612130;23;1356;-74
2023/08/18 01:01:17;;;;;;;7.63;5.72;;;;;;;;;;613407;23;899;-74
2023/08/18 01:01:34;;;;;;;9.25;5.93;;;;;;;;;;612292;23;1286;-74
2023/08/18 01:01:53;;;;;;;7.60;6.00;;;;;;;;;;609344;23;1349;-74
2023/08/18 01:02:09;;;;;;;8.00;5.90;;;;;;;;;;612634;23;1423;-74
2023/08/18 01:02:29;;;;;;;7.85;5.68;;;;;;;;;;612336;23;1266;-74
2023/08/18 01:03:03;;;;;;;;;;;;;;;;;;;;;
2023/08/18 01:03:25;;;;;;;7.18;5.88;;;;;;;;;;614505;23;1167;-74
2023/08/18 01:03:47;;;;;;;8.57;5.57;;;;;;;;;;615457;23;1367;-74
2023/08/18 01:04:06;;;;;;;8.00;5.70;;;;;;;;;;617610;23;1270;-74
2023/08/18 01:04:23;;;;;;;8.52;5.90;;;;;;;;;;619755;23;1152;-74
2023/08/18 01:04:48;;;;;;;6.22;5.60;;;;;;;;;;619580;23;1434;-74
2023/08/18 01:05:07;;;;;;;6.00;5.50;;;;;;;;;;620830;23;1910;-75
2023/08/18 01:05:26;;;;;;;8.90;5.85;;;;;;;;;;617131;23;1528;-74
2023/08/18 01:05:42;;;;;;;9.75;5.90;;;;;;;;;;620404;23;1442;-74
2023/08/18 01:05:59;;;;;;;7.82;5.70;;;;;;;;;;617388;23;1432;-74
2023/08/18 01:06:17;;;;;;;8.07;5.78;;;;;;;;;;618059;23;1399;-74
2023/08/18 01:06:42;;;;;;;8.23;6.03;;;;;;;;;;614617;23;1615;-74
2023/08/18 01:06:59;;;;;;;8.10;5.93;;;;;;;;;;615246;23;916;-74
2023/08/18 01:07:23;;;;;;;8.70;5.63;;;;;;;;;;618489;23;1447;-76
2023/08/18 01:07:39;;;;;;;8.50;5.60;;;;;;;;;;615009;23;1435;-74
2023/08/18 01:08:06;;;;;;;9.02;5.90;;;;;;;;;;617806;23;1355;-74
2023/08/18 01:08:22;;;;;;;7.40;5.70;;;;;;;;;;617071;23;1129;-74
2023/08/18 01:08:43;;;;;;;7.75;5.60;;;;;;;;;;617522;23;1342;-74
2023/08/18 01:08:59;;;;;;;7.97;5.40;;;;;;;;;;617528;23;1462;-74
2023/08/18 01:09:15;;;;;;;7.78;5.80;;;;;;;;;;618167;23;1407;-74
2023/08/18 01:09:31;;;;;;;7.13;5.75;;;;;;;;;;618419;23;1324;-74
2023/08/18 01:09:47;;;;;;;6.88;5.55;;;;;;;;;;618286;23;1118;-74
2023/08/18 01:10:03;;;;;;;6.47;5.80;;;;;;;;;;612380;23;1425;-74
2023/08/18 01:10:21;;;;;;;6.45;5.80;;;;;;;;;;615544;23;1319;-73
2023/08/18 01:10:47;;;;;;;8.30;5.60;;;;;;;;;;620632;23;1312;-75
2023/08/18 01:11:11;;;;;;;7.80;5.78;;;;;;;;;;620568;23;1253;-74
2023/08/18 01:11:42;;;;;;;7.93;5.68;;;;;;;;;;617747;23;1537;-74
2023/08/18 01:12:26;;;;;;;9.38;5.78;;;;;;;;;;617881;23;1234;-74
2023/08/18 01:13:06;;;;;;;6.13;5.50;;;;;;;;;;618224;23;1374;-74
2023/08/18 01:13:41;;;;;;;7.35;5.43;;;;;;;;;;616465;23;1400;-74
2023/08/18 01:14:48;;;;;;;7.22;5.57;;;;;;;;;;617188;23;1298;-74
2023/08/18 01:15:20;;;;;;;7.18;5.70;;;;;;;;;;603538;24;1482;-74
2023/08/18 01:15:43;;;;;;;5.93;5.15;;;;;;;;;;606457;24;1457;-74
2023/08/18 01:16:03;;;;;;;6.50;5.30;;;;;;;;;;612284;23;1366;-75
2023/08/18 01:16:26;;;;;;;6.78;5.75;;;;;;;;;;614224;23;1346;-75
2023/08/18 01:16:54;;;;;;;6.80;5.68;;;;;;;;;;614593;23;1461;-74
2023/08/18 01:17:18;;;;;;;7.65;5.53;;;;;;;;;;618153;23;1476;-74
2023/08/18 01:17:46;;;;;;;6.60;5.63;;;;;;;;;;617741;23;1457;-75
2023/08/18 01:18:05;;;;;;;7.35;5.30;;;;;;;;;;618156;23;1366;-74
2023/08/18 01:18:22;;;;;;;5.95;5.15;;;;;;;;;;620872;23;838;-74
2023/08/18 01:18:44;;;;;;;6.25;5.35;;;;;;;;;;617870;23;1313;-74
2023/08/18 01:19:03;;;;;;;8.43;5.75;;;;;;;;;;618918;23;1482;-74
2023/08/18 01:19:28;;;;;;;7.95;5.55;;;;;;;;;;617428;23;1282;-75
2023/08/18 01:19:52;;;;;;;8.00;5.50;;;;;;;;;;621307;23;1481;-75
2023/08/18 01:20:12;;;;;;;7.70;5.95;;;;;;;;;;617954;23;1070;-75
2023/08/18 01:20:35;;;;;;;7.43;5.60;;;;;;;;;;618142;23;1439;-74
2023/08/18 01:20:53;;;;;;;6.07;5.20;;;;;;;;;;619031;23;875;-74
2023/08/18 01:21:14;;;;;;;6.18;5.32;;;;;;;;;;618332;23;1342;-74
2023/08/18 01:21:33;;;;;;;8.88;5.68;;;;;;;;;;621314;23;1173;-74
2023/08/18 01:21:55;;;;;;;7.93;5.80;;;;;;;;;;620680;23;1182;-75
2023/08/18 01:22:16;;;;;;;7.70;6.10;;;;;;;;;;617720;23;1205;-74
2023/08/18 01:22:34;;;;;;;7.60;6.07;;;;;;;;;;618066;23;1501;-75
2023/08/18 01:23:02;;;;;;;7.63;5.95;;;;;;;;;;615533;23;1422;-74
2023/08/18 01:23:35;;;;;;;7.25;5.60;;;;;;;;;;612528;23;943;-74
2023/08/18 01:23:51;;;;;;;8.57;5.90;;;;;;;;;;612112;23;1248;-74
2023/08/18 01:24:06;;;;;;;11.10;6.20;;;;;;;;;;613901;23;1266;-74
2023/08/18 01:24:26;;;;;;;8.90;6.05;;;;;;;;;;612714;23;1229;-73
2023/08/18 01:24:45;;;;;;;8.48;6.13;;;;;;;;;;615768;23;1292;-74
2023/08/18 01:25:01;;;;;;;8.50;6.30;;;;;;;;;;615296;23;1902;-74
2023/08/18 01:25:17;;;;;;;6.55;5.78;;;;;;;;;;615115;23;1181;-75
2023/08/18 01:25:33;;;;;;;7.03;5.60;;;;;;;;;;615509;23;1212;-74
2023/08/18 01:25:48;;;;;;;9.30;5.88;;;;;;;;;;615449;23;839;-74
2023/08/18 01:26:04;;;;;;;9.25;6.32;;;;;;;;;;615306;23;934;-75
2023/08/18 01:26:20;;;;;;;8.23;6.50;;;;;;;;;;617291;23;1375;-74
2023/08/18 01:26:36;;;;;;;8.57;6.60;;;;;;;;;;619490;23;1339;-74
2023/08/18 01:26:52;;;;;;;12.18;6.43;;;;;;;;;;619473;23;1429;-75
2023/08/18 01:27:10;;;;;;;11.50;6.00;;;;;;;;;;618117;23;1292;-74
2023/08/18 01:27:29;;;;;;;7.75;6.03;;;;;;;;;;615184;23;1115;-75
2023/08/18 01:27:44;;;;;;;7.25;6.00;;;;;;;;;;615190;23;1305;-75
2023/08/18 01:28:02;;;;;;;8.25;6.25;;;;;;;;;;615256;23;906;-74
2023/08/18 01:28:18;;;;;;;7.03;6.07;;;;;;;;;;615247;23;1119;-73
2023/08/18 01:28:37;;;;;;;7.40;6.23;;;;;;;;;;614850;23;1109;-74
2023/08/18 01:28:53;;;;;;;8.82;6.50;;;;;;;;;;614815;23;1503;-74
2023/08/18 01:29:09;;;;;;;8.65;6.38;;;;;;;;;;614717;23;1182;-74
2023/08/18 01:29:27;;;;;;;8.32;6.65;;;;;;;;;;615016;23;1527;-74
2023/08/18 01:29:43;;;;;;;7.70;6.60;;;;;;;;;;617793;23;1361;-74
2023/08/18 01:30:00;;;;;;;8.40;6.50;;;;;;;;;;617856;23;1254;-74
2023/08/18 01:30:19;;;;;;;9.93;6.78;;;;;;;;;;620728;23;1276;-74
2023/08/18 01:30:38;;;;;;;9.18;6.80;;;;;;;;;;621031;23;1435;-74
2023/08/18 01:30:55;;;;;;;8.02;6.50;;;;;;;;;;618629;23;1337;-73
2023/08/18 01:31:15;;;;;;;7.32;6.57;;;;;;;;;;615431;23;1482;-75
2023/08/18 01:31:35;;;;;;;7.22;6.40;;;;;;;;;;615414;23;1398;-74
2023/08/18 01:32:01;;;;;;;7.10;6.05;;;;;;;;;;615153;23;1269;-74
2023/08/18 01:32:18;;;;;;;7.20;6.22;;;;;;;;;;617972;23;1276;-74
2023/08/18 01:32:51;;;;;;;6.90;6.25;;;;;;;;;;621187;23;1535;-74
2023/08/18 01:33:23;;;;;;;7.43;6.25;;;;;;;;;;623220;23;891;-74
2023/08/18 01:34:11;;;;;;;9.85;6.68;;;;;;;;;;621606;23;1510;-74
2023/08/18 01:35:22;;;;;;;8.90;6.70;;;;;;;;;;618606;23;1406;-74
2023/08/18 01:35:26;;;;;;;7.80;6.47;;;;;;;;;;615825;23;846;-74
2023/08/18 01:35:50;;;;;;;8.30;6.60;;;;;;;;;;620860;23;1388;-74
2023/08/18 01:36:12;;;;;;;8.07;6.60;;;;;;;;;;621361;23;1227;-75
2023/08/18 01:36:38;;;;;;;12.60;6.95;;;;;;;;;;620946;23;1545;-74
2023/08/18 01:37:01;;;;;;;8.32;6.68;;;;;;;;;;618040;23;1351;-74
2023/08/18 01:37:21;;;;;;;7.25;6.45;;;;;;;;;;617569;23;1320;-74
2023/08/18 01:37:38;;;;;;;7.85;6.20;;;;;;;;;;614892;23;1413;-74
2023/08/18 01:38:05;;;;;;;10.45;6.50;;;;;;;;;;614720;23;1454;-74
2023/08/18 01:38:24;;;;;;;8.68;6.47;;;;;;;;;;613477;23;1451;-75
2023/08/18 01:38:48;;;;;;;9.95;6.50;;;;;;;;;;612392;23;1837;-75
2023/08/18 01:39:18;;;;;;;11.20;6.63;;;;;;;;;;612218;23;1115;-75
2023/08/18 01:39:45;;;;;;;9.80;6.68;;;;;;;;;;614763;23;1383;-75
2023/08/18 01:40:11;;;;;;;7.40;6.20;;;;;;;;;;618008;23;860;-74
2023/08/18 01:40:35;;;;;;;8.30;6.75;;;;;;;;;;617836;23;1265;-74
2023/08/18 01:40:52;;;;;;;9.05;6.85;;;;;;;;;;618027;23;1126;-74
2023/08/18 01:41:09;;;;;;;7.15;6.13;;;;;;;;;;618436;23;1357;-75
2023/08/18 01:41:25;;;;;;;7.72;6.15;;;;;;;;;;618588;23;851;-74
2023/08/18 01:41:44;;;;;;;7.23;6.20;;;;;;;;;;618239;23;888;-74
2023/08/18 01:42:04;;;;;;;7.78;6.22;;;;;;;;;;614958;23;1316;-74
2023/08/18 01:42:28;;;;;;;9.75;6.75;;;;;;;;;;616555;23;867;-74
2023/08/18 01:42:46;;;;;;;8.65;6.55;;;;;;;;;;615804;23;1438;-74
2023/08/18 01:43:03;;;;;;;8.18;6.47;;;;;;;;;;616540;23;1427;-74
2023/08/18 01:43:20;;;;;;;8.18;6.50;;;;;;;;;;618382;23;980;-73
2023/08/18 01:43:36;;;;;;;7.85;6.45;;;;;;;;;;614431;23;1546;-74
2023/08/18 01:43:52;;;;;;;8.25;6.65;;;;;;;;;;616033;23;1523;-74
2023/08/18 01:44:10;;;;;;;8.07;6.68;;;;;;;;;;614967;23;1324;-75
2023/08/18 01:44:29;;;;;;;9.00;6.57;;;;;;;;;;615169;23;1559;-74
2023/08/18 01:44:45;;;;;;;8.20;6.20;;;;;;;;;;615144;23;1522;-75
2023/08/18 01:45:02;;;;;;;6.95;6.18;;;;;;;;;;614719;23;1931;-74
2023/08/18 01:45:21;;;;;;;8.25;6.55;;;;;;;;;;617879;23;1420;-74
2023/08/18 01:45:38;;;;;;;9.35;6.50;;;;;;;;;;617701;23;1411;-74
2023/08/18 01:45:56;;;;;;;7.75;6.55;;;;;;;;;;618189;23;1393;-74
2023/08/18 01:46:12;;;;;;;8.32;6.45;;;;;;;;;;618061;23;1077;-75
2023/08/18 01:46:28;;;;;;;9.23;6.50;;;;;;;;;;620902;23;1115;-74
2023/08/18 01:46:44;;;;;;;9.18;6.68;;;;;;;;;;621282;23;1018;-74
2023/08/18 01:46:59;;;;;;;10.30;6.70;;;;;;;;;;617714;23;1346;-74
2023/08/18 01:47:24;;;;;;;10.63;6.80;;;;;;;;;;620774;23;1433;-74
2023/08/18 01:47:43;;;;;;;8.13;6.65;;;;;;;;;;620805;23;1237;-74
2023/08/18 01:47:59;;;;;;;8.88;6.57;;;;;;;;;;621075;23;1393;-74
2023/08/18 01:48:18;;;;;;;7.95;6.28;;;;;;;;;;617799;23;1241;-75
2023/08/18 01:48:36;;;;;;;7.40;6.10;;;;;;;;;;617966;23;1205;-74
2023/08/18 01:48:57;;;;;;;7.95;6.43;;;;;;;;;;618203;23;1536;-73
2023/08/18 01:49:23;;;;;;;7.68;6.03;;;;;;;;;;621073;23;1579;-74
2023/08/18 01:49:49;;;;;;;5.60;5.10;;;;;;;;;;620667;23;1609;-74
2023/08/18 01:50:06;;;;;;;6.68;5.80;;;;;;;;;;618115;23;898;-74
2023/08/18 01:50:22;;;;;;;6.50;5.60;;;;;;;;;;615254;23;1574;-74
2023/08/18 01:50:38;;;;;;;6.40;5.30;;;;;;;;;;621398;23;1426;-74
2023/08/18 01:50:54;;;;;;;6.00;5.28;;;;;;;;;;620883;23;1217;-74
2023/08/18 01:51:10;;;;;;;5.95;5.35;;;;;;;;;;618365;23;1295;-74
2023/08/18 01:51:29;;;;;;;7.57;5.53;;;;;;;;;;618165;23;1049;-74
2023/08/18 01:51:44;;;;;;;7.60;5.80;;;;;;;;;;615475;23;1390;-74
2023/08/18 01:52:00;;;;;;;6.78;5.75;;;;;;;;;;612262;23;1369;-74
2023/08/18 01:52:16;;;;;;;7.37;5.63;;;;;;;;;;612006;23;1436;-74
2023/08/18 01:52:52;;;;;;;7.68;5.70;;;;;;;;;;615241;23;1377;-74
2023/08/18 01:53:07;;;;;;;8.45;5.90;;;;;;;;;;617732;23;1535;-74
2023/08/18 01:53:23;;;;;;;7.55;5.85;;;;;;;;;;617800;23;1391;-74
2023/08/18 01:53:39;;;;;;;6.70;5.68;;;;;;;;;;618573;23;1415;-74
2023/08/18 01:53:57;;;;;;;8.07;5.97;;;;;;;;;;618299;23;1217;-75
2023/08/18 01:54:13;;;;;;;8.35;6.05;;;;;;;;;;618472;23;1495;-74
2023/08/18 01:54:29;;;;;;;7.63;6.10;;;;;;;;;;618530;23;1243;-74
2023/08/18 01:54:45;;;;;;;7.68;6.00;;;;;;;;;;618414;23;1257;-74
2023/08/18 01:55:03;;;;;;;7.32;5.85;;;;;;;;;;618192;23;1296;-74
2023/08/18 01:55:22;;;;;;;9.60;6.10;;;;;;;;;;615085;23;1407;-74
2023/08/18 01:55:42;;;;;;;8.35;6.15;;;;;;;;;;614935;23;1565;-74
2023/08/18 01:56:01;;;;;;;6.65;5.97;;;;;;;;;;614953;23;1539;-74
2023/08/18 01:56:16;;;;;;;7.10;5.97;;;;;;;;;;618312;23;882;-74
2023/08/18 01:56:33;;;;;;;7.43;5.87;;;;;;;;;;618287;23;1247;-75
2023/08/18 01:56:49;;;;;;;7.60;5.88;;;;;;;;;;615310;23;1380;-74
2023/08/18 01:57:11;;;;;;;7.18;5.82;;;;;;;;;;615416;23;847;-74
2023/08/18 01:57:29;;;;;;;6.85;5.93;;;;;;;;;;612769;23;1283;-74
2023/08/18 01:57:45;;;;;;;6.40;5.68;;;;;;;;;;612663;23;1385;-74
2023/08/18 01:58:01;;;;;;;7.32;5.78;;;;;;;;;;612041;23;1364;-75
2023/08/18 01:58:17;;;;;;;8.30;5.72;;;;;;;;;;611937;23;1410;-74
2023/08/18 01:58:33;;;;;;;6.93;5.20;;;;;;;;;;609496;24;1459;-74
2023/08/18 01:58:49;;;;;;;6.18;5.10;;;;;;;;;;615558;23;1373;-74
2023/08/18 01:59:05;;;;;;;7.35;5.45;;;;;;;;;;615837;23;862;-74
2023/08/18 01:59:21;;;;;;;7.68;5.68;;;;;;;;;;621067;23;1130;-74
2023/08/18 01:59:36;;;;;;;7.75;6.00;;;;;;;;;;618005;23;1150;-74
2023/08/18 01:59:52;;;;;;;9.03;6.10;;;;;;;;;;615587;23;1289;-74
2023/08/18 02:00:08;;;;;;;8.13;5.93;;;;;;;;;;614819;23;1207;-74
2023/08/18 02:00:27;;;;;;;7.60;6.00;;;;;;;;;;612453;23;1415;-74
2023/08/18 02:00:46;;;;;;;7.40;5.85;;;;;;;;;;612500;23;1315;-74
2023/08/18 02:01:07;;;;;;;7.78;6.10;;;;;;;;;;615533;23;1405;-74
2023/08/18 02:01:41;;;;;;;8.23;5.78;;;;;;;;;;618487;23;1588;-74
2023/08/18 02:01:57;;;;;;;8.75;5.93;;;;;;;;;;618535;23;1091;-74
2023/08/18 02:02:15;;;;;;;10.43;5.95;;;;;;;;;;615592;23;1543;-74
2023/08/18 02:02:37;;;;;;;8.70;6.15;;;;;;;;;;615712;23;1388;-74
2023/08/18 02:02:53;;;;;;;7.05;6.07;;;;;;;;;;616325;23;880;-73
2023/08/18 02:03:11;;;;;;;7.63;6.00;;;;;;;;;;618268;23;1585;-74
2023/08/18 02:03:30;;;;;;;8.57;5.80;;;;;;;;;;618087;23;1417;-74
2023/08/18 02:03:46;;;;;;;8.43;5.80;;;;;;;;;;615298;23;1437;-74
2023/08/18 02:04:02;;;;;;;9.02;5.90;;;;;;;;;;616106;23;1466;-73
2023/08/18 02:04:40;;;;;;;9.07;5.87;;;;;;;;;;617912;23;1322;-73
2023/08/18 02:04:59;;;;;;;7.70;5.60;;;;;;;;;;618498;23;1311;-74